sensor_id;sensor_type;location;lat;lon;timestamp;P1;durP1;ratioP1;P2;durP2;ratioP2
18042;SDS011;9146;48.074;11.968;2023-05-28T00:02:06;7.60;;;4.70;;
18042;SDS011;9146;48.074;11.968;2023-05-28T00:04:34;6.27;;;4.50;;
18042;SDS011;9146;48.074;11.968;2023-05-28T00:07:01;8.83;;;4.27;;
18042;SDS011;9146;48.074;11.968;2023-05-28T00:09:29;11.30;;;4.30;;
18042;SDS011;9146;48.074;11.968;2023-05-28T00:11:55;9.77;;;4.47;;
18042;SDS011;9146;48.074;11.968;2023-05-28T00:14:22;7.97;;;4.50;;
18042;SDS011;9146;48.074;11.968;2023-05-28T00:16:49;4.30;;;3.90;;
18042;SDS011;9146;48.074;11.968;2023-05-28T00:19:16;6.97;;;3.80;;
18042;SDS011;9146;48.074;11.968;2023-05-28T00:21:45;6.67;;;3.47;;
18042;SDS011;9146;48.074;11.968;2023-05-28T00:24:11;8.07;;;4.40;;
18042;SDS011;9146;48.074;11.968;2023-05-28T00:26:38;6.70;;;4.43;;
18042;SDS011;9146;48.074;11.968;2023-05-28T00:29:05;10.10;;;4.60;;
18042;SDS011;9146;48.074;11.968;2023-05-28T00:31:32;16.13;;;4.60;;
18042;SDS011;9146;48.074;11.968;2023-05-28T00:33:59;5.90;;;4.30;;
18042;SDS011;9146;48.074;11.968;2023-05-28T00:36:26;9.40;;;4.37;;
18042;SDS011;9146;48.074;11.968;2023-05-28T00:38:54;13.10;;;5.30;;
18042;SDS011;9146;48.074;11.968;2023-05-28T00:41:21;4.53;;;3.80;;
18042;SDS011;9146;48.074;11.968;2023-05-28T00:43:48;7.40;;;4.40;;
18042;SDS011;9146;48.074;11.968;2023-05-28T00:46:16;5.70;;;3.73;;
18042;SDS011;9146;48.074;11.968;2023-05-28T00:48:44;8.20;;;4.10;;
18042;SDS011;9146;48.074;11.968;2023-05-28T00:51:12;9.10;;;3.83;;
18042;SDS011;9146;48.074;11.968;2023-05-28T00:53:40;9.20;;;3.70;;
18042;SDS011;9146;48.074;11.968;2023-05-28T00:56:09;11.70;;;4.60;;
18042;SDS011;9146;48.074;11.968;2023-05-28T00:58:37;6.73;;;3.90;;
18042;SDS011;9146;48.074;11.968;2023-05-28T01:01:05;6.43;;;3.70;;
18042;SDS011;9146;48.074;11.968;2023-05-28T01:03:33;5.60;;;3.93;;
18042;SDS011;9146;48.074;11.968;2023-05-28T01:06:03;8.20;;;3.50;;
18042;SDS011;9146;48.074;11.968;2023-05-28T01:08:32;8.70;;;4.10;;
18042;SDS011;9146;48.074;11.968;2023-05-28T01:10:59;6.80;;;3.90;;
18042;SDS011;9146;48.074;11.968;2023-05-28T01:13:27;7.60;;;3.90;;
18042;SDS011;9146;48.074;11.968;2023-05-28T01:15:54;8.40;;;4.27;;
18042;SDS011;9146;48.074;11.968;2023-05-28T01:18:21;7.80;;;4.20;;
18042;SDS011;9146;48.074;11.968;2023-05-28T01:20:49;10.23;;;5.00;;
18042;SDS011;9146;48.074;11.968;2023-05-28T01:23:18;9.47;;;4.33;;
18042;SDS011;9146;48.074;11.968;2023-05-28T01:25:50;10.23;;;5.00;;
18042;SDS011;9146;48.074;11.968;2023-05-28T01:28:19;8.77;;;4.37;;
18042;SDS011;9146;48.074;11.968;2023-05-28T01:30:46;8.13;;;4.30;;
18042;SDS011;9146;48.074;11.968;2023-05-28T01:33:13;9.97;;;3.73;;
18042;SDS011;9146;48.074;11.968;2023-05-28T01:35:40;5.57;;;3.17;;
18042;SDS011;9146;48.074;11.968;2023-05-28T01:38:08;5.57;;;3.80;;
18042;SDS011;9146;48.074;11.968;2023-05-28T01:40:36;6.20;;;4.10;;
18042;SDS011;9146;48.074;11.968;2023-05-28T01:43:07;8.80;;;3.87;;
18042;SDS011;9146;48.074;11.968;2023-05-28T01:45:34;8.80;;;4.17;;
18042;SDS011;9146;48.074;11.968;2023-05-28T01:48:02;9.43;;;5.10;;
18042;SDS011;9146;48.074;11.968;2023-05-28T01:50:29;8.23;;;4.90;;
18042;SDS011;9146;48.074;11.968;2023-05-28T01:52:57;6.70;;;4.80;;
18042;SDS011;9146;48.074;11.968;2023-05-28T01:55:24;9.97;;;4.50;;
18042;SDS011;9146;48.074;11.968;2023-05-28T01:57:51;10.33;;;4.80;;
18042;SDS011;9146;48.074;11.968;2023-05-28T02:00:21;9.90;;;5.13;;
18042;SDS011;9146;48.074;11.968;2023-05-28T02:02:48;8.07;;;4.73;;
18042;SDS011;9146;48.074;11.968;2023-05-28T02:05:15;11.20;;;4.17;;
18042;SDS011;9146;48.074;11.968;2023-05-28T02:07:42;6.03;;;4.40;;
18042;SDS011;9146;48.074;11.968;2023-05-28T02:10:12;14.60;;;4.63;;
18042;SDS011;9146;48.074;11.968;2023-05-28T02:12:39;9.33;;;4.63;;
18042;SDS011;9146;48.074;11.968;2023-05-28T02:15:08;8.20;;;4.57;;
18042;SDS011;9146;48.074;11.968;2023-05-28T02:17:37;6.77;;;4.70;;
18042;SDS011;9146;48.074;11.968;2023-05-28T02:20:04;11.13;;;4.87;;
18042;SDS011;9146;48.074;11.968;2023-05-28T02:22:33;7.63;;;4.43;;
18042;SDS011;9146;48.074;11.968;2023-05-28T02:24:59;10.93;;;4.60;;
18042;SDS011;9146;48.074;11.968;2023-05-28T02:27:26;15.20;;;5.67;;
18042;SDS011;9146;48.074;11.968;2023-05-28T02:29:53;6.80;;;4.63;;
18042;SDS011;9146;48.074;11.968;2023-05-28T02:32:20;8.37;;;5.70;;
18042;SDS011;9146;48.074;11.968;2023-05-28T02:34:49;8.20;;;4.77;;
18042;SDS011;9146;48.074;11.968;2023-05-28T02:37:19;7.17;;;5.30;;
18042;SDS011;9146;48.074;11.968;2023-05-28T02:39:49;9.53;;;4.90;;
18042;SDS011;9146;48.074;11.968;2023-05-28T02:42:15;7.50;;;4.53;;
18042;SDS011;9146;48.074;11.968;2023-05-28T02:44:42;10.23;;;5.10;;
18042;SDS011;9146;48.074;11.968;2023-05-28T02:47:09;9.63;;;4.50;;
18042;SDS011;9146;48.074;11.968;2023-05-28T02:49:36;10.27;;;5.27;;
18042;SDS011;9146;48.074;11.968;2023-05-28T02:52:05;13.10;;;5.53;;
18042;SDS011;9146;48.074;11.968;2023-05-28T02:54:32;10.17;;;5.10;;
18042;SDS011;9146;48.074;11.968;2023-05-28T02:56:58;8.03;;;4.07;;
18042;SDS011;9146;48.074;11.968;2023-05-28T02:59:25;11.27;;;4.60;;
18042;SDS011;9146;48.074;11.968;2023-05-28T03:01:52;7.07;;;4.20;;
18042;SDS011;9146;48.074;11.968;2023-05-28T03:04:19;7.13;;;3.83;;
18042;SDS011;9146;48.074;11.968;2023-05-28T03:06:48;5.90;;;3.83;;
18042;SDS011;9146;48.074;11.968;2023-05-28T03:09:16;8.37;;;3.60;;
18042;SDS011;9146;48.074;11.968;2023-05-28T03:11:44;7.60;;;4.73;;
18042;SDS011;9146;48.074;11.968;2023-05-28T03:14:11;8.90;;;4.70;;
18042;SDS011;9146;48.074;11.968;2023-05-28T03:16:37;8.27;;;4.60;;
18042;SDS011;9146;48.074;11.968;2023-05-28T03:19:04;8.57;;;5.03;;
18042;SDS011;9146;48.074;11.968;2023-05-28T03:21:31;10.53;;;5.47;;
18042;SDS011;9146;48.074;11.968;2023-05-28T03:23:58;9.53;;;4.53;;
18042;SDS011;9146;48.074;11.968;2023-05-28T03:26:27;8.90;;;3.87;;
18042;SDS011;9146;48.074;11.968;2023-05-28T03:28:54;8.53;;;4.60;;
18042;SDS011;9146;48.074;11.968;2023-05-28T03:31:21;10.57;;;4.83;;
18042;SDS011;9146;48.074;11.968;2023-05-28T03:33:55;10.00;;;4.17;;
18042;SDS011;9146;48.074;11.968;2023-05-28T03:36:22;4.40;;;4.00;;
18042;SDS011;9146;48.074;11.968;2023-05-28T03:38:50;6.33;;;4.33;;
18042;SDS011;9146;48.074;11.968;2023-05-28T03:41:17;9.07;;;4.77;;
18042;SDS011;9146;48.074;11.968;2023-05-28T03:43:45;8.97;;;4.33;;
18042;SDS011;9146;48.074;11.968;2023-05-28T03:46:12;7.23;;;4.17;;
18042;SDS011;9146;48.074;11.968;2023-05-28T03:48:40;7.00;;;4.50;;
18042;SDS011;9146;48.074;11.968;2023-05-28T03:51:08;8.53;;;4.47;;
18042;SDS011;9146;48.074;11.968;2023-05-28T03:53:36;8.93;;;5.10;;
18042;SDS011;9146;48.074;11.968;2023-05-28T03:56:02;11.47;;;5.13;;
18042;SDS011;9146;48.074;11.968;2023-05-28T03:58:30;8.13;;;4.70;;
18042;SDS011;9146;48.074;11.968;2023-05-28T04:00:59;13.93;;;4.87;;
18042;SDS011;9146;48.074;11.968;2023-05-28T04:03:26;10.80;;;5.40;;
18042;SDS011;9146;48.074;11.968;2023-05-28T04:05:53;6.87;;;4.50;;
18042;SDS011;9146;48.074;11.968;2023-05-28T04:08:19;9.20;;;5.60;;
18042;SDS011;9146;48.074;11.968;2023-05-28T04:14:08;9.60;;;4.60;;
18042;SDS011;9146;48.074;11.968;2023-05-28T04:16:37;8.67;;;4.97;;
18042;SDS011;9146;48.074;11.968;2023-05-28T04:19:03;7.53;;;4.90;;
18042;SDS011;9146;48.074;11.968;2023-05-28T04:21:31;7.60;;;4.30;;
18042;SDS011;9146;48.074;11.968;2023-05-28T04:23:58;18.60;;;4.87;;
18042;SDS011;9146;48.074;11.968;2023-05-28T04:26:25;13.90;;;6.00;;
18042;SDS011;9146;48.074;11.968;2023-05-28T04:28:52;10.60;;;5.63;;
18042;SDS011;9146;48.074;11.968;2023-05-28T04:31:19;8.90;;;5.00;;
18042;SDS011;9146;48.074;11.968;2023-05-28T04:33:48;10.63;;;4.70;;
18042;SDS011;9146;48.074;11.968;2023-05-28T04:36:15;10.73;;;5.17;;
18042;SDS011;9146;48.074;11.968;2023-05-28T04:38:42;5.80;;;4.43;;
18042;SDS011;9146;48.074;11.968;2023-05-28T04:41:09;8.87;;;5.07;;
18042;SDS011;9146;48.074;11.968;2023-05-28T04:43:39;12.50;;;5.37;;
18042;SDS011;9146;48.074;11.968;2023-05-28T04:46:06;8.30;;;4.70;;
18042;SDS011;9146;48.074;11.968;2023-05-28T04:48:33;10.07;;;5.33;;
18042;SDS011;9146;48.074;11.968;2023-05-28T04:51:03;12.43;;;5.67;;
18042;SDS011;9146;48.074;11.968;2023-05-28T04:53:31;17.33;;;5.13;;
18042;SDS011;9146;48.074;11.968;2023-05-28T04:55:58;11.17;;;4.70;;
18042;SDS011;9146;48.074;11.968;2023-05-28T04:58:25;10.90;;;5.10;;
18042;SDS011;9146;48.074;11.968;2023-05-28T05:00:52;8.83;;;4.33;;
18042;SDS011;9146;48.074;11.968;2023-05-28T05:03:20;8.57;;;4.83;;
18042;SDS011;9146;48.074;11.968;2023-05-28T05:05:47;12.23;;;4.33;;
18042;SDS011;9146;48.074;11.968;2023-05-28T05:08:16;8.13;;;5.67;;
18042;SDS011;9146;48.074;11.968;2023-05-28T05:10:43;11.90;;;5.30;;
18042;SDS011;9146;48.074;11.968;2023-05-28T05:13:09;8.13;;;4.97;;
18042;SDS011;9146;48.074;11.968;2023-05-28T05:15:36;11.07;;;4.97;;
18042;SDS011;9146;48.074;11.968;2023-05-28T05:18:03;6.00;;;3.80;;
18042;SDS011;9146;48.074;11.968;2023-05-28T05:20:30;12.53;;;4.50;;
18042;SDS011;9146;48.074;11.968;2023-05-28T05:22:57;15.73;;;5.37;;
18042;SDS011;9146;48.074;11.968;2023-05-28T05:25:26;10.60;;;4.33;;
18042;SDS011;9146;48.074;11.968;2023-05-28T05:27:52;7.33;;;4.90;;
18042;SDS011;9146;48.074;11.968;2023-05-28T05:30:19;10.80;;;4.80;;
18042;SDS011;9146;48.074;11.968;2023-05-28T05:32:46;12.00;;;4.83;;
18042;SDS011;9146;48.074;11.968;2023-05-28T05:35:13;7.40;;;4.77;;
18042;SDS011;9146;48.074;11.968;2023-05-28T05:37:41;9.40;;;5.30;;
18042;SDS011;9146;48.074;11.968;2023-05-28T05:40:08;13.37;;;5.83;;
18042;SDS011;9146;48.074;11.968;2023-05-28T05:42:37;15.33;;;5.73;;
18042;SDS011;9146;48.074;11.968;2023-05-28T05:45:04;7.97;;;4.60;;
18042;SDS011;9146;48.074;11.968;2023-05-28T05:47:32;9.40;;;4.77;;
18042;SDS011;9146;48.074;11.968;2023-05-28T05:49:59;11.93;;;4.90;;
18042;SDS011;9146;48.074;11.968;2023-05-28T05:52:25;8.73;;;4.37;;
18042;SDS011;9146;48.074;11.968;2023-05-28T05:54:52;9.00;;;5.50;;
18042;SDS011;9146;48.074;11.968;2023-05-28T05:57:19;12.23;;;4.63;;
18042;SDS011;9146;48.074;11.968;2023-05-28T05:59:48;9.90;;;5.47;;
18042;SDS011;9146;48.074;11.968;2023-05-28T06:02:17;10.97;;;4.80;;
18042;SDS011;9146;48.074;11.968;2023-05-28T06:04:44;10.60;;;5.50;;
18042;SDS011;9146;48.074;11.968;2023-05-28T06:07:11;10.13;;;5.33;;
18042;SDS011;9146;48.074;11.968;2023-05-28T06:09:38;12.90;;;5.90;;
18042;SDS011;9146;48.074;11.968;2023-05-28T06:12:05;8.00;;;5.43;;
18042;SDS011;9146;48.074;11.968;2023-05-28T06:14:32;11.00;;;4.80;;
18042;SDS011;9146;48.074;11.968;2023-05-28T06:17:00;13.03;;;4.70;;
18042;SDS011;9146;48.074;11.968;2023-05-28T06:19:27;10.40;;;5.53;;
18042;SDS011;9146;48.074;11.968;2023-05-28T06:21:54;11.53;;;5.30;;
18042;SDS011;9146;48.074;11.968;2023-05-28T06:24:21;9.23;;;4.30;;
18042;SDS011;9146;48.074;11.968;2023-05-28T06:26:48;11.17;;;5.40;;
18042;SDS011;9146;48.074;11.968;2023-05-28T06:29:16;10.50;;;5.00;;
18042;SDS011;9146;48.074;11.968;2023-05-28T06:31:42;17.33;;;5.53;;
18042;SDS011;9146;48.074;11.968;2023-05-28T06:34:11;11.27;;;4.53;;
18042;SDS011;9146;48.074;11.968;2023-05-28T06:36:38;11.83;;;5.37;;
18042;SDS011;9146;48.074;11.968;2023-05-28T06:39:05;12.13;;;5.53;;
18042;SDS011;9146;48.074;11.968;2023-05-28T06:41:34;7.43;;;4.60;;
18042;SDS011;9146;48.074;11.968;2023-05-28T06:44:01;12.33;;;5.67;;
18042;SDS011;9146;48.074;11.968;2023-05-28T06:46:28;14.00;;;5.63;;
18042;SDS011;9146;48.074;11.968;2023-05-28T06:48:55;7.23;;;4.60;;
18042;SDS011;9146;48.074;11.968;2023-05-28T06:51:24;15.93;;;5.43;;
18042;SDS011;9146;48.074;11.968;2023-05-28T06:53:51;8.00;;;5.03;;
18042;SDS011;9146;48.074;11.968;2023-05-28T06:56:18;11.13;;;5.63;;
18042;SDS011;9146;48.074;11.968;2023-05-28T06:58:45;15.93;;;5.30;;
18042;SDS011;9146;48.074;11.968;2023-05-28T07:01:14;7.80;;;4.67;;
18042;SDS011;9146;48.074;11.968;2023-05-28T07:03:41;10.20;;;5.07;;
18042;SDS011;9146;48.074;11.968;2023-05-28T07:06:08;6.63;;;4.43;;
18042;SDS011;9146;48.074;11.968;2023-05-28T07:08:37;11.93;;;4.63;;
18042;SDS011;9146;48.074;11.968;2023-05-28T07:11:06;11.60;;;6.40;;
18042;SDS011;9146;48.074;11.968;2023-05-28T07:13:33;9.93;;;5.90;;
18042;SDS011;9146;48.074;11.968;2023-05-28T07:16:00;15.33;;;6.30;;
18042;SDS011;9146;48.074;11.968;2023-05-28T07:18:27;9.57;;;5.60;;
18042;SDS011;9146;48.074;11.968;2023-05-28T07:20:54;6.23;;;4.33;;
18042;SDS011;9146;48.074;11.968;2023-05-28T07:23:21;9.57;;;5.20;;
18042;SDS011;9146;48.074;11.968;2023-05-28T07:25:49;13.23;;;5.07;;
18042;SDS011;9146;48.074;11.968;2023-05-28T07:28:16;10.73;;;5.67;;
18042;SDS011;9146;48.074;11.968;2023-05-28T07:30:43;8.17;;;5.10;;
18042;SDS011;9146;48.074;11.968;2023-05-28T07:33:10;9.00;;;4.40;;
18042;SDS011;9146;48.074;11.968;2023-05-28T07:35:38;8.33;;;5.10;;
18042;SDS011;9146;48.074;11.968;2023-05-28T07:38:04;7.60;;;5.00;;
18042;SDS011;9146;48.074;11.968;2023-05-28T07:40:32;8.50;;;4.93;;
18042;SDS011;9146;48.074;11.968;2023-05-28T07:43:01;11.83;;;5.50;;
18042;SDS011;9146;48.074;11.968;2023-05-28T07:45:28;9.07;;;5.40;;
18042;SDS011;9146;48.074;11.968;2023-05-28T07:47:55;9.83;;;4.83;;
18042;SDS011;9146;48.074;11.968;2023-05-28T07:50:22;8.30;;;4.57;;
18042;SDS011;9146;48.074;11.968;2023-05-28T07:52:49;7.73;;;4.07;;
18042;SDS011;9146;48.074;11.968;2023-05-28T07:55:16;8.10;;;5.13;;
18042;SDS011;9146;48.074;11.968;2023-05-28T07:57:43;7.27;;;4.07;;
18042;SDS011;9146;48.074;11.968;2023-05-28T08:00:12;5.83;;;4.13;;
18042;SDS011;9146;48.074;11.968;2023-05-28T08:02:41;9.47;;;4.80;;
18042;SDS011;9146;48.074;11.968;2023-05-28T08:05:08;10.67;;;4.97;;
18042;SDS011;9146;48.074;11.968;2023-05-28T08:07:35;6.07;;;4.20;;
18042;SDS011;9146;48.074;11.968;2023-05-28T08:10:03;12.43;;;5.27;;
18042;SDS011;9146;48.074;11.968;2023-05-28T08:12:30;10.60;;;4.70;;
18042;SDS011;9146;48.074;11.968;2023-05-28T08:14:57;6.87;;;4.27;;
18042;SDS011;9146;48.074;11.968;2023-05-28T08:17:29;7.93;;;3.93;;
18042;SDS011;9146;48.074;11.968;2023-05-28T08:19:56;10.67;;;5.77;;
18042;SDS011;9146;48.074;11.968;2023-05-28T08:22:23;10.23;;;5.00;;
18042;SDS011;9146;48.074;11.968;2023-05-28T08:24:50;7.60;;;4.40;;
18042;SDS011;9146;48.074;11.968;2023-05-28T08:27:17;6.33;;;4.93;;
18042;SDS011;9146;48.074;11.968;2023-05-28T08:29:45;7.50;;;4.20;;
18042;SDS011;9146;48.074;11.968;2023-05-28T08:32:12;9.70;;;4.90;;
18042;SDS011;9146;48.074;11.968;2023-05-28T08:34:41;8.90;;;4.40;;
18042;SDS011;9146;48.074;11.968;2023-05-28T08:37:08;9.30;;;4.60;;
18042;SDS011;9146;48.074;11.968;2023-05-28T08:39:36;9.70;;;5.03;;
18042;SDS011;9146;48.074;11.968;2023-05-28T08:42:03;7.83;;;4.63;;
18042;SDS011;9146;48.074;11.968;2023-05-28T08:44:33;9.73;;;3.83;;
18042;SDS011;9146;48.074;11.968;2023-05-28T08:47:01;7.27;;;3.63;;
18042;SDS011;9146;48.074;11.968;2023-05-28T08:49:30;5.63;;;3.93;;
18042;SDS011;9146;48.074;11.968;2023-05-28T08:52:01;8.90;;;4.20;;
18042;SDS011;9146;48.074;11.968;2023-05-28T08:54:29;7.33;;;4.57;;
18042;SDS011;9146;48.074;11.968;2023-05-28T08:56:56;9.23;;;4.77;;
18042;SDS011;9146;48.074;11.968;2023-05-28T08:59:24;6.80;;;4.20;;
18042;SDS011;9146;48.074;11.968;2023-05-28T09:01:52;7.23;;;3.80;;
18042;SDS011;9146;48.074;11.968;2023-05-28T09:04:19;8.60;;;4.50;;
18042;SDS011;9146;48.074;11.968;2023-05-28T09:06:47;6.60;;;4.57;;
18042;SDS011;9146;48.074;11.968;2023-05-28T09:09:16;9.70;;;4.40;;
18042;SDS011;9146;48.074;11.968;2023-05-28T09:11:43;7.37;;;3.50;;
18042;SDS011;9146;48.074;11.968;2023-05-28T09:14:11;7.50;;;4.13;;
18042;SDS011;9146;48.074;11.968;2023-05-28T09:16:42;9.07;;;4.93;;
18042;SDS011;9146;48.074;11.968;2023-05-28T09:19:10;10.07;;;4.43;;
18042;SDS011;9146;48.074;11.968;2023-05-28T09:21:51;7.90;;;4.37;;
18042;SDS011;9146;48.074;11.968;2023-05-28T09:24:19;10.03;;;4.80;;
18042;SDS011;9146;48.074;11.968;2023-05-28T09:26:47;8.63;;;4.37;;
18042;SDS011;9146;48.074;11.968;2023-05-28T09:29:15;6.67;;;3.20;;
18042;SDS011;9146;48.074;11.968;2023-05-28T09:31:42;5.03;;;3.63;;
18042;SDS011;9146;48.074;11.968;2023-05-28T09:34:09;10.90;;;4.43;;
18042;SDS011;9146;48.074;11.968;2023-05-28T09:36:37;9.97;;;4.53;;
18042;SDS011;9146;48.074;11.968;2023-05-28T09:39:05;7.93;;;4.23;;
18042;SDS011;9146;48.074;11.968;2023-05-28T09:41:34;6.10;;;3.63;;
18042;SDS011;9146;48.074;11.968;2023-05-28T09:44:05;6.60;;;3.20;;
18042;SDS011;9146;48.074;11.968;2023-05-28T09:46:35;8.60;;;3.70;;
18042;SDS011;9146;48.074;11.968;2023-05-28T09:49:03;7.87;;;4.40;;
18042;SDS011;9146;48.074;11.968;2023-05-28T09:51:30;9.83;;;3.40;;
18042;SDS011;9146;48.074;11.968;2023-05-28T09:53:58;7.43;;;3.47;;
18042;SDS011;9146;48.074;11.968;2023-05-28T09:56:28;6.40;;;3.90;;
18042;SDS011;9146;48.074;11.968;2023-05-28T09:58:58;6.63;;;3.73;;
18042;SDS011;9146;48.074;11.968;2023-05-28T10:01:28;9.00;;;3.90;;
18042;SDS011;9146;48.074;11.968;2023-05-28T10:04:00;8.73;;;3.73;;
18042;SDS011;9146;48.074;11.968;2023-05-28T10:06:30;7.67;;;3.77;;
18042;SDS011;9146;48.074;11.968;2023-05-28T10:08:59;6.23;;;4.23;;
18042;SDS011;9146;48.074;11.968;2023-05-28T10:11:29;7.37;;;4.23;;
18042;SDS011;9146;48.074;11.968;2023-05-28T10:13:58;8.53;;;4.43;;
18042;SDS011;9146;48.074;11.968;2023-05-28T10:16:26;5.93;;;3.27;;
18042;SDS011;9146;48.074;11.968;2023-05-28T10:18:53;5.70;;;3.70;;
18042;SDS011;9146;48.074;11.968;2023-05-28T10:21:22;5.77;;;3.80;;
18042;SDS011;9146;48.074;11.968;2023-05-28T10:23:51;5.00;;;3.73;;
18042;SDS011;9146;48.074;11.968;2023-05-28T10:26:18;9.67;;;4.23;;
18042;SDS011;9146;48.074;11.968;2023-05-28T10:28:52;8.20;;;4.07;;
18042;SDS011;9146;48.074;11.968;2023-05-28T10:31:22;7.77;;;4.00;;
18042;SDS011;9146;48.074;11.968;2023-05-28T10:33:49;4.13;;;3.53;;
18042;SDS011;9146;48.074;11.968;2023-05-28T10:36:17;10.93;;;4.20;;
18042;SDS011;9146;48.074;11.968;2023-05-28T10:38:45;6.03;;;4.27;;
18042;SDS011;9146;48.074;11.968;2023-05-28T10:41:22;6.93;;;3.97;;
18042;SDS011;9146;48.074;11.968;2023-05-28T10:43:50;4.27;;;3.50;;
18042;SDS011;9146;48.074;11.968;2023-05-28T10:46:18;5.90;;;3.90;;
18042;SDS011;9146;48.074;11.968;2023-05-28T10:49:06;7.67;;;3.97;;
18042;SDS011;9146;48.074;11.968;2023-05-28T10:51:51;6.90;;;3.93;;
18042;SDS011;9146;48.074;11.968;2023-05-28T10:54:22;6.20;;;3.70;;
18042;SDS011;9146;48.074;11.968;2023-05-28T10:57:07;5.63;;;3.90;;
18042;SDS011;9146;48.074;11.968;2023-05-28T10:59:38;7.93;;;4.50;;
18042;SDS011;9146;48.074;11.968;2023-05-28T11:02:09;8.70;;;5.07;;
18042;SDS011;9146;48.074;11.968;2023-05-28T11:04:39;7.20;;;3.70;;
18042;SDS011;9146;48.074;11.968;2023-05-28T11:07:06;5.40;;;4.07;;
18042;SDS011;9146;48.074;11.968;2023-05-28T11:09:34;6.77;;;4.30;;
18042;SDS011;9146;48.074;11.968;2023-05-28T11:12:01;6.43;;;4.13;;
18042;SDS011;9146;48.074;11.968;2023-05-28T11:14:34;5.20;;;3.77;;
18042;SDS011;9146;48.074;11.968;2023-05-28T11:17:05;7.03;;;3.57;;
18042;SDS011;9146;48.074;11.968;2023-05-28T11:19:41;4.80;;;3.97;;
18042;SDS011;9146;48.074;11.968;2023-05-28T11:22:09;9.00;;;3.63;;
18042;SDS011;9146;48.074;11.968;2023-05-28T11:24:50;6.97;;;3.77;;
18042;SDS011;9146;48.074;11.968;2023-05-28T11:27:17;6.73;;;3.90;;
18042;SDS011;9146;48.074;11.968;2023-05-28T11:29:44;4.83;;;3.80;;
18042;SDS011;9146;48.074;11.968;2023-05-28T11:32:11;6.33;;;4.10;;
18042;SDS011;9146;48.074;11.968;2023-05-28T11:34:38;8.73;;;4.07;;
18042;SDS011;9146;48.074;11.968;2023-05-28T11:37:07;6.40;;;3.20;;
18042;SDS011;9146;48.074;11.968;2023-05-28T11:39:34;4.77;;;3.70;;
18042;SDS011;9146;48.074;11.968;2023-05-28T11:42:01;9.90;;;4.30;;
18042;SDS011;9146;48.074;11.968;2023-05-28T11:44:28;8.37;;;4.20;;
18042;SDS011;9146;48.074;11.968;2023-05-28T11:46:55;7.03;;;3.73;;
18042;SDS011;9146;48.074;11.968;2023-05-28T11:49:22;8.30;;;4.60;;
18042;SDS011;9146;48.074;11.968;2023-05-28T11:51:51;6.40;;;3.87;;
18042;SDS011;9146;48.074;11.968;2023-05-28T11:54:18;5.73;;;3.63;;
18042;SDS011;9146;48.074;11.968;2023-05-28T11:56:47;5.80;;;3.80;;
18042;SDS011;9146;48.074;11.968;2023-05-28T11:59:15;10.90;;;3.67;;
18042;SDS011;9146;48.074;11.968;2023-05-28T12:01:44;8.47;;;3.97;;
18042;SDS011;9146;48.074;11.968;2023-05-28T12:04:11;7.80;;;4.00;;
18042;SDS011;9146;48.074;11.968;2023-05-28T12:09:26;3.87;;;2.97;;
18042;SDS011;9146;48.074;11.968;2023-05-28T12:12:03;7.70;;;3.40;;
18042;SDS011;9146;48.074;11.968;2023-05-28T12:14:31;5.70;;;3.30;;
18042;SDS011;9146;48.074;11.968;2023-05-28T12:17:05;4.80;;;3.23;;
18042;SDS011;9146;48.074;11.968;2023-05-28T12:19:33;4.57;;;3.50;;
18042;SDS011;9146;48.074;11.968;2023-05-28T12:22:04;9.03;;;4.87;;
18042;SDS011;9146;48.074;11.968;2023-05-28T12:24:39;5.80;;;4.10;;
18042;SDS011;9146;48.074;11.968;2023-05-28T12:27:13;6.30;;;4.33;;
18042;SDS011;9146;48.074;11.968;2023-05-28T12:29:40;6.00;;;3.50;;
18042;SDS011;9146;48.074;11.968;2023-05-28T12:32:06;7.80;;;4.10;;
18042;SDS011;9146;48.074;11.968;2023-05-28T12:34:34;6.23;;;4.00;;
18042;SDS011;9146;48.074;11.968;2023-05-28T12:37:02;7.83;;;3.90;;
18042;SDS011;9146;48.074;11.968;2023-05-28T12:39:30;4.50;;;3.10;;
18042;SDS011;9146;48.074;11.968;2023-05-28T12:41:57;5.73;;;3.50;;
18042;SDS011;9146;48.074;11.968;2023-05-28T12:44:25;8.07;;;4.00;;
18042;SDS011;9146;48.074;11.968;2023-05-28T12:46:52;9.70;;;3.70;;
18042;SDS011;9146;48.074;11.968;2023-05-28T12:49:19;5.87;;;3.20;;
18042;SDS011;9146;48.074;11.968;2023-05-28T12:51:45;5.37;;;3.97;;
18042;SDS011;9146;48.074;11.968;2023-05-28T12:54:14;7.60;;;3.50;;
18042;SDS011;9146;48.074;11.968;2023-05-28T12:56:41;4.97;;;3.23;;
18042;SDS011;9146;48.074;11.968;2023-05-28T12:59:08;3.57;;;3.27;;
18042;SDS011;9146;48.074;11.968;2023-05-28T13:01:36;5.13;;;3.53;;
18042;SDS011;9146;48.074;11.968;2023-05-28T13:04:02;6.87;;;3.50;;
18042;SDS011;9146;48.074;11.968;2023-05-28T13:06:29;6.77;;;3.90;;
18042;SDS011;9146;48.074;11.968;2023-05-28T13:08:56;4.13;;;3.50;;
18042;SDS011;9146;48.074;11.968;2023-05-28T13:11:25;5.67;;;3.77;;
18042;SDS011;9146;48.074;11.968;2023-05-28T13:13:52;5.43;;;3.80;;
18042;SDS011;9146;48.074;11.968;2023-05-28T13:16:19;5.10;;;3.50;;
18042;SDS011;9146;48.074;11.968;2023-05-28T13:18:46;6.00;;;3.40;;
18042;SDS011;9146;48.074;11.968;2023-05-28T13:21:14;6.00;;;3.50;;
18042;SDS011;9146;48.074;11.968;2023-05-28T13:23:41;5.43;;;3.57;;
18042;SDS011;9146;48.074;11.968;2023-05-28T13:26:08;5.27;;;3.70;;
18042;SDS011;9146;48.074;11.968;2023-05-28T13:28:36;5.60;;;3.27;;
18042;SDS011;9146;48.074;11.968;2023-05-28T13:31:03;6.90;;;3.50;;
18042;SDS011;9146;48.074;11.968;2023-05-28T13:33:30;7.37;;;3.83;;
18042;SDS011;9146;48.074;11.968;2023-05-28T13:35:57;6.60;;;3.30;;
18042;SDS011;9146;48.074;11.968;2023-05-28T13:38:24;5.70;;;3.13;;
18042;SDS011;9146;48.074;11.968;2023-05-28T13:40:52;3.37;;;2.80;;
18042;SDS011;9146;48.074;11.968;2023-05-28T13:43:19;7.40;;;3.20;;
18042;SDS011;9146;48.074;11.968;2023-05-28T13:45:47;4.83;;;3.17;;
18042;SDS011;9146;48.074;11.968;2023-05-28T13:48:15;3.57;;;3.03;;
18042;SDS011;9146;48.074;11.968;2023-05-28T13:50:42;7.50;;;3.90;;
18042;SDS011;9146;48.074;11.968;2023-05-28T13:53:09;5.03;;;3.20;;
18042;SDS011;9146;48.074;11.968;2023-05-28T13:55:36;5.00;;;3.60;;
18042;SDS011;9146;48.074;11.968;2023-05-28T13:58:03;5.70;;;3.50;;
18042;SDS011;9146;48.074;11.968;2023-05-28T14:00:30;5.87;;;3.57;;
18042;SDS011;9146;48.074;11.968;2023-05-28T14:02:58;4.90;;;3.40;;
18042;SDS011;9146;48.074;11.968;2023-05-28T14:05:25;7.37;;;3.57;;
18042;SDS011;9146;48.074;11.968;2023-05-28T14:07:52;9.13;;;3.87;;
18042;SDS011;9146;48.074;11.968;2023-05-28T14:10:19;5.43;;;3.13;;
18042;SDS011;9146;48.074;11.968;2023-05-28T14:12:49;3.13;;;2.80;;
18042;SDS011;9146;48.074;11.968;2023-05-28T14:15:17;4.13;;;3.10;;
18042;SDS011;9146;48.074;11.968;2023-05-28T14:17:44;8.73;;;3.63;;
18042;SDS011;9146;48.074;11.968;2023-05-28T14:20:13;8.40;;;4.00;;
18042;SDS011;9146;48.074;11.968;2023-05-28T14:22:40;8.60;;;4.27;;
18042;SDS011;9146;48.074;11.968;2023-05-28T14:25:08;4.50;;;3.43;;
18042;SDS011;9146;48.074;11.968;2023-05-28T14:27:35;4.80;;;3.50;;
18042;SDS011;9146;48.074;11.968;2023-05-28T14:30:03;7.37;;;3.70;;
18042;SDS011;9146;48.074;11.968;2023-05-28T14:32:31;4.60;;;3.77;;
18042;SDS011;9146;48.074;11.968;2023-05-28T14:34:58;7.40;;;3.23;;
18042;SDS011;9146;48.074;11.968;2023-05-28T14:37:28;3.57;;;3.10;;
18042;SDS011;9146;48.074;11.968;2023-05-28T14:39:55;6.60;;;4.23;;
18042;SDS011;9146;48.074;11.968;2023-05-28T14:42:22;5.87;;;3.10;;
18042;SDS011;9146;48.074;11.968;2023-05-28T14:44:49;8.23;;;4.00;;
18042;SDS011;9146;48.074;11.968;2023-05-28T14:47:16;4.40;;;3.77;;
18042;SDS011;9146;48.074;11.968;2023-05-28T14:49:43;5.80;;;3.80;;
18042;SDS011;9146;48.074;11.968;2023-05-28T14:52:23;6.40;;;3.47;;
18042;SDS011;9146;48.074;11.968;2023-05-28T14:54:52;3.13;;;2.80;;
18042;SDS011;9146;48.074;11.968;2023-05-28T14:57:20;5.70;;;3.30;;